Time,TemperatureF,DewpointF,PressureIn,WindDirection,WindDirectionDegrees,WindSpeedMPH,WindSpeedGustMPH,Humidity,HourlyPrecipIn,Conditions,Clouds,dailyrainin,SoftwareType,DateUTC
2013-08-21 00:01:00,73.1,69.0,29.87,ESE,117,2.3,2.3,87,0.00,,SKC,0.00,WeatherDisplay:10.37,2013-08-21 05:01:00,
2013-08-21 00:06:00,73.2,69.1,29.87,SE,143,4.6,4.6,87,0.00,,SKC,0.00,WeatherDisplay:10.37,2013-08-21 05:06:00,
2013-08-21 00:11:00,73.4,69.0,29.88,SSW,212,5.3,5.3,86,0.00,,SKC,0.00,WeatherDisplay:10.37,2013-08-21 05:11:00,
2013-08-21 00:16:00,73.6,69.2,29.88,SSE,165,4.6,4.6,86,0.00,,SKC,0.00,WeatherDisplay:10.37,2013-08-21 05:16:00,
2013-08-21 00:21:00,73.9,69.1,29.87,SSE,148,6.9,6.9,85,0.00,,SKC,0.00,WeatherDisplay:10.37,2013-08-21 05:21:00,
2013-08-21 00:26:00,74.0,69.2,29.87,SE,140,4.6,4.6,85,0.00,,SKC,0.00,WeatherDisplay:10.37,2013-08-21 05:26:00,
2013-08-21 00:31:00,74.1,69.0,29.87,SSW,202,6.4,6.4,84,0.00,,SKC,0.00,WeatherDisplay:10.37,2013-08-21 05:31:00,
2013-08-21 00:36:00,74.1,69.0,29.87,SSE,147,6.9,6.9,84,0.00,,SKC,0.00,WeatherDisplay:10.37,2013-08-21 05:36:00,
2013-08-21 00:41:00,74.2,69.1,29.87,SSE,158,4.6,4.6,84,0.00,,SKC,0.00,WeatherDisplay:10.37,2013-08-21 05:41:00,
2013-08-21 00:46:00,74.2,69.1,29.87,South,178,4.6,4.6,84,0.00,,SKC,0.00,WeatherDisplay:10.37,2013-08-21 05:46:00,
2013-08-21 00:51:00,74.1,69.0,29.87,SE,139,4.6,4.6,84,0.00,,SKC,0.00,WeatherDisplay:10.37,2013-08-21 05:51:00,
2013-08-21 00:56:00,74.0,68.9,29.88,West,259,5.8,5.8,84,0.00,,SKC,0.00,WeatherDisplay:10.37,2013-08-21 05:56:00,
2013-08-21 01:01:00,73.9,68.8,29.88,SE,128,3.5,3.5,84,0.00,,SKC,0.00,WeatherDisplay:10.37,2013-08-21 06:01:00,
2013-08-21 01:07:00,73.8,68.7,29.88,South,190,5.8,5.8,84,0.00,,SKC,0.00,WeatherDisplay:10.37,2013-08-21 06:07:00,
2013-08-21 01:12:00,73.7,68.6,29.88,SSE,154,2.3,2.3,84,0.00,,SKC,0.00,WeatherDisplay:10.37,2013-08-21 06:12:00,
2013-08-21 01:17:00,73.7,68.9,29.88,SE,143,5.8,5.8,85,0.00,,SKC,0.00,WeatherDisplay:10.37,2013-08-21 06:17:00,
2013-08-21 01:22:00,73.5,68.7,29.88,ESE,115,3.5,3.5,85,0.00,,SKC,0.00,WeatherDisplay:10.37,2013-08-21 06:22:00,
2013-08-21 01:27:00,73.3,68.5,29.88,SSE,155,3.5,3.5,85,0.00,,SKC,0.00,WeatherDisplay:10.37,2013-08-21 06:27:00,
2013-08-21 01:32:00,73.2,68.4,29.88,SSE,147,5.8,5.8,85,0.00,,SKC,0.00,WeatherDisplay:10.37,2013-08-21 06:32:00,
2013-08-21 01:37:00,73.0,68.6,29.88,SSW,201,5.3,5.3,86,0.00,,SKC,0.00,WeatherDisplay:10.37,2013-08-21 06:37:00,
2013-08-21 01:42:00,72.8,68.4,29.88,South,176,3.5,3.5,86,0.00,,SKC,0.00,WeatherDisplay:10.37,2013-08-21 06:42:00,
2013-08-21 01:47:00,72.8,68.4,29.88,SE,132,3.5,3.5,86,0.00,,SKC,0.00,WeatherDisplay:10.37,2013-08-21 06:47:00,
2013-08-21 01:52:00,72.7,68.3,29.88,SSE,148,3.5,3.5,86,0.00,,SKC,0.00,WeatherDisplay:10.37,2013-08-21 06:52:00,
2013-08-21 01:57:00,72.7,68.3,29.88,SSE,159,3.5,3.5,86,0.00,,SKC,0.00,WeatherDisplay:10.37,2013-08-21 06:57:00,
2013-08-21 02:02:00,72.6,68.2,29.88,SE,144,3.5,3.5,86,0.00,,SKC,0.00,WeatherDisplay:10.37,2013-08-21 07:02:00,
2013-08-21 02:07:00,72.7,68.3,29.88,SSE,167,6.9,6.9,86,0.00,,SKC,0.00,WeatherDisplay:10.37,2013-08-21 07:07:00,
2013-08-21 02:12:00,72.7,67.9,29.88,SSE,148,3.5,3.5,85,0.00,,SKC,0.00,WeatherDisplay:10.37,2013-08-21 07:12:00,
2013-08-21 02:17:00,72.7,67.9,29.88,SSE,155,4.2,4.2,85,0.00,,SKC,0.00,WeatherDisplay:10.37,2013-08-21 07:17:00,
2013-08-21 02:22:00,72.5,67.7,29.88,SE,146,4.6,4.6,85,0.00,,SKC,0.00,WeatherDisplay:10.37,2013-08-21 07:22:00,
2013-08-21 02:27:00,72.4,68.0,29.88,SSW,195,5.8,5.8,86,0.00,,SKC,0.00,WeatherDisplay:10.37,2013-08-21 07:27:00,
2013-08-21 02:32:00,72.3,67.9,29.88,SSE,165,4.6,4.6,86,0.00,,SKC,0.00,WeatherDisplay:10.37,2013-08-21 07:32:00,
2013-08-21 02:37:00,72.0,67.6,29.88,SE,139,2.1,2.1,86,0.00,,SKC,0.00,WeatherDisplay:10.37,2013-08-21 07:37:00,
2013-08-21 02:42:00,71.7,67.6,29.88,SSE,147,2.3,2.3,87,0.00,,SKC,0.00,WeatherDisplay:10.37,2013-08-21 07:42:00,
2013-08-21 02:47:00,71.5,67.4,29.88,SE,144,4.2,4.2,87,0.00,,SKC,0.00,WeatherDisplay:10.37,2013-08-21 07:47:00,
2013-08-21 02:52:00,71.5,67.4,29.88,SE,137,4.6,4.6,87,0.00,,SKC,0.00,WeatherDisplay:10.37,2013-08-21 07:52:00,
2013-08-21 02:57:00,71.4,67.3,29.88,SE,132,2.3,2.3,87,0.00,,SKC,0.00,WeatherDisplay:10.37,2013-08-21 07:57:00,
2013-08-21 03:02:00,71.3,67.6,29.88,SSE,153,2.1,2.1,88,0.00,,SKC,0.00,WeatherDisplay:10.37,2013-08-21 08:02:00,
2013-08-21 03:07:00,71.2,67.5,29.88,SSE,154,3.5,3.5,88,0.00,,SKC,0.00,WeatherDisplay:10.37,2013-08-21 08:07:00,
2013-08-21 03:12:00,71.1,67.4,29.88,SE,145,3.5,3.5,88,0.00,,SKC,0.00,WeatherDisplay:10.37,2013-08-21 08:12:00,
2013-08-21 03:17:00,70.9,67.2,29.88,SSE,153,4.2,4.2,88,0.00,,SKC,0.00,WeatherDisplay:10.37,2013-08-21 08:17:00,
2013-08-21 03:22:00,70.7,67.3,29.88,SSE,149,3.5,3.5,89,0.00,,SKC,0.00,WeatherDisplay:10.37,2013-08-21 08:22:00,
2013-08-21 03:27:00,70.7,67.3,29.88,SE,146,3.5,3.5,89,0.00,,SKC,0.00,WeatherDisplay:10.37,2013-08-21 08:27:00,
2013-08-21 03:32:00,70.6,67.2,29.87,SE,124,3.5,3.5,89,0.00,,SKC,0.00,WeatherDisplay:10.37,2013-08-21 08:32:00,
2013-08-21 03:37:00,70.6,67.2,29.88,SE,133,1.2,0.0,89,0.00,,SKC,0.00,WeatherDisplay:10.37,2013-08-21 08:37:00,
2013-08-21 03:42:00,70.5,67.1,29.88,SE,146,2.1,2.1,89,0.00,,SKC,0.00,WeatherDisplay:10.37,2013-08-21 08:42:00,
2013-08-21 03:47:00,70.3,66.9,29.88,SE,131,1.2,1.2,89,0.00,,SKC,0.00,WeatherDisplay:10.37,2013-08-21 08:47:00,
2013-08-21 03:52:00,70.2,67.1,29.88,SSE,155,1.2,1.2,90,0.00,,SKC,0.00,WeatherDisplay:10.37,2013-08-21 08:52:00,
2013-08-21 03:57:00,70.1,67.0,29.87,SE,139,1.2,1.2,90,0.00,,SKC,0.00,WeatherDisplay:10.37,2013-08-21 08:57:00,
2013-08-21 04:02:00,70.0,66.9,29.87,SE,136,2.3,2.3,90,0.00,,SKC,0.00,WeatherDisplay:10.37,2013-08-21 09:02:00,
2013-08-21 04:07:00,69.9,66.8,29.87,ESE,122,2.3,2.3,90,0.00,,SKC,0.00,WeatherDisplay:10.37,2013-08-21 09:07:00,
2013-08-21 04:12:00,69.8,66.7,29.88,SSE,150,1.2,1.2,90,0.00,,SKC,0.00,WeatherDisplay:10.37,2013-08-21 09:12:00,
2013-08-21 04:17:00,69.8,66.7,29.88,ESE,120,1.2,1.2,90,0.00,,SKC,0.00,WeatherDisplay:10.37,2013-08-21 09:17:00,
2013-08-21 04:22:00,69.7,66.6,29.87,SE,126,2.3,2.3,90,0.00,,SKC,0.00,WeatherDisplay:10.37,2013-08-21 09:22:00,
2013-08-21 04:27:00,69.7,66.6,29.88,SE,135,1.2,1.2,90,0.00,,SKC,0.00,WeatherDisplay:10.37,2013-08-21 09:27:00,
2013-08-21 04:32:00,69.7,66.6,29.88,SE,136,2.3,2.3,90,0.00,,SKC,0.00,WeatherDisplay:10.37,2013-08-21 09:32:00,
2013-08-21 04:37:00,69.7,66.6,29.88,ESE,110,3.5,3.5,90,0.00,,SKC,0.00,WeatherDisplay:10.37,2013-08-21 09:37:00,
2013-08-21 04:42:00,69.7,66.6,29.88,SE,127,3.5,3.5,90,0.00,,SKC,0.00,WeatherDisplay:10.37,2013-08-21 09:42:00,
2013-08-21 04:47:00,69.8,66.7,29.88,ESE,115,5.8,5.8,90,0.00,,SKC,0.00,WeatherDisplay:10.37,2013-08-21 09:47:00,
2013-08-21 04:52:00,69.7,66.6,29.88,SE,129,3.5,3.5,90,0.00,,SKC,0.00,WeatherDisplay:10.37,2013-08-21 09:52:00,
2013-08-21 04:57:00,69.6,66.5,29.88,ESE,103,2.3,2.3,90,0.00,,SKC,0.00,WeatherDisplay:10.37,2013-08-21 09:57:00,
2013-08-21 05:02:00,69.6,66.5,29.88,ESE,114,2.3,2.3,90,0.00,,SKC,0.00,WeatherDisplay:10.37,2013-08-21 10:02:00,
2013-08-21 05:07:00,69.5,66.4,29.88,ESE,118,3.5,3.5,90,0.00,,SKC,0.00,WeatherDisplay:10.37,2013-08-21 10:07:00,
2013-08-21 05:12:00,69.4,66.3,29.88,ESE,121,3.2,3.2,90,0.00,,SKC,0.00,WeatherDisplay:10.37,2013-08-21 10:12:00,
2013-08-21 05:17:00,69.4,66.3,29.88,ESE,119,1.2,1.2,90,0.00,,SKC,0.00,WeatherDisplay:10.37,2013-08-21 10:17:00,
2013-08-21 05:22:00,69.3,66.2,29.89,ESE,110,2.1,2.1,90,0.00,,SKC,0.00,WeatherDisplay:10.37,2013-08-21 10:22:00,
2013-08-21 05:27:00,69.3,66.2,29.89,ESE,118,2.3,2.3,90,0.00,,SKC,0.00,WeatherDisplay:10.37,2013-08-21 10:27:00,
2013-08-21 05:32:00,69.3,66.2,29.89,SSE,151,1.1,1.1,90,0.00,,SKC,0.00,WeatherDisplay:10.37,2013-08-21 10:32:00,
2013-08-21 05:37:00,69.2,66.1,29.89,ESE,117,1.2,1.2,90,0.00,,SKC,0.00,WeatherDisplay:10.37,2013-08-21 10:37:00,
2013-08-21 05:46:00,69.1,66.0,29.89,SSE,158,1.2,1.2,90,0.00,,SKC,0.00,WeatherDisplay:10.37,2013-08-21 10:46:00,
2013-08-21 05:51:00,69.1,66.4,29.89,SE,146,6.9,6.9,91,0.00,,SKC,0.00,WeatherDisplay:10.37,2013-08-21 10:51:00,
2013-08-21 05:56:00,69.1,66.0,29.89,SE,143,1.2,1.2,90,0.00,,SKC,0.00,WeatherDisplay:10.37,2013-08-21 10:56:00,
2013-08-21 06:01:00,69.1,66.0,29.89,SSE,157,2.1,2.1,90,0.00,,SKC,0.00,WeatherDisplay:10.37,2013-08-21 11:01:00,
2013-08-21 06:06:00,69.0,66.3,29.90,SSE,147,1.2,1.2,91,0.00,,SKC,0.00,WeatherDisplay:10.37,2013-08-21 11:06:00,
2013-08-21 06:11:00,69.1,66.4,29.90,SSE,148,1.2,1.2,91,0.00,,SKC,0.00,WeatherDisplay:10.37,2013-08-21 11:11:00,
2013-08-21 06:16:00,69.1,66.4,29.89,SSE,167,2.1,2.1,91,0.00,,SKC,0.00,WeatherDisplay:10.37,2013-08-21 11:16:00,
2013-08-21 06:21:00,69.0,65.9,29.90,SE,140,2.3,2.3,90,0.00,,SKC,0.00,WeatherDisplay:10.37,2013-08-21 11:21:00,
2013-08-21 06:26:00,68.9,66.2,29.90,ESE,116,1.2,1.2,91,0.00,,SKC,0.00,WeatherDisplay:10.37,2013-08-21 11:26:00,
2013-08-21 06:31:00,68.7,66.0,29.90,SE,143,1.2,0.0,91,0.00,,SKC,0.00,WeatherDisplay:10.37,2013-08-21 11:31:00,
2013-08-21 06:36:00,68.6,65.9,29.90,SE,131,0.0,0.0,91,0.00,,SKC,0.00,WeatherDisplay:10.37,2013-08-21 11:36:00,
2013-08-21 06:41:00,68.5,65.8,29.90,SE,138,1.2,1.2,91,0.00,,SKC,0.00,WeatherDisplay:10.37,2013-08-21 11:41:00,
2013-08-21 06:46:00,68.4,65.7,29.90,SSE,162,1.2,1.2,91,0.00,,SKC,0.00,WeatherDisplay:10.37,2013-08-21 11:46:00,
2013-08-21 06:51:00,68.4,65.7,29.90,SE,146,1.2,1.2,91,0.00,,SKC,0.00,WeatherDisplay:10.37,2013-08-21 11:51:00,
2013-08-21 06:56:00,68.6,65.9,29.90,SE,140,0.0,0.0,91,0.00,,SKC,0.00,WeatherDisplay:10.37,2013-08-21 11:56:00,
2013-08-21 07:01:00,68.6,65.9,29.91,SE,128,1.1,0.0,91,0.00,,SKC,0.00,WeatherDisplay:10.37,2013-08-21 12:01:00,
2013-08-21 07:06:00,68.6,65.9,29.91,SE,134,2.3,2.3,91,0.00,,SKC,0.00,WeatherDisplay:10.37,2013-08-21 12:06:00,
2013-08-21 07:11:00,68.6,65.9,29.91,SE,141,1.2,1.2,91,0.00,,SKC,0.00,WeatherDisplay:10.37,2013-08-21 12:11:00,
2013-08-21 07:16:00,68.4,65.7,29.91,SSE,157,1.2,1.2,91,0.00,,SKC,0.00,WeatherDisplay:10.37,2013-08-21 12:16:00,
2013-08-21 07:21:00,68.6,65.9,29.91,SE,133,1.2,0.0,91,0.00,,SKC,0.00,WeatherDisplay:10.37,2013-08-21 12:21:00,
2013-08-21 07:26:00,68.9,66.2,29.91,SE,135,1.2,0.0,91,0.00,,SKC,0.00,WeatherDisplay:10.37,2013-08-21 12:26:00,
2013-08-21 07:31:00,69.2,66.1,29.91,SE,141,2.3,2.3,90,0.00,,SKC,0.00,WeatherDisplay:10.37,2013-08-21 12:31:00,
2013-08-21 07:37:00,69.5,66.4,29.91,SE,129,2.3,2.3,90,0.00,,SKC,0.00,WeatherDisplay:10.37,2013-08-21 12:37:00,
2013-08-21 07:41:00,69.7,66.6,29.91,SSE,160,2.3,2.3,90,0.00,,SKC,0.00,WeatherDisplay:10.37,2013-08-21 12:41:00,
2013-08-21 07:47:00,70.1,66.7,29.91,SSE,153,1.2,1.2,89,0.00,,SKC,0.00,WeatherDisplay:10.37,2013-08-21 12:47:00,
2013-08-21 07:52:00,70.4,66.7,29.91,SW,214,1.2,1.2,88,0.00,,SKC,0.00,WeatherDisplay:10.37,2013-08-21 12:52:00,
2013-08-21 07:57:00,70.9,67.2,29.92,SSE,162,1.1,1.1,88,0.00,,SKC,0.00,WeatherDisplay:10.37,2013-08-21 12:57:00,
2013-08-21 08:02:00,71.3,67.2,29.92,SSW,198,3.5,3.5,87,0.00,,SKC,0.00,WeatherDisplay:10.37,2013-08-21 13:02:00,
2013-08-21 08:07:00,71.6,67.2,29.92,SSE,168,2.3,2.3,86,0.00,,SKC,0.00,WeatherDisplay:10.37,2013-08-21 13:07:00,
2013-08-21 08:12:00,72.0,67.6,29.92,South,171,4.6,4.6,86,0.00,,SKC,0.00,WeatherDisplay:10.37,2013-08-21 13:12:00,
2013-08-21 08:17:00,72.2,67.4,29.92,SE,138,4.6,4.6,85,0.00,,SKC,0.00,WeatherDisplay:10.37,2013-08-21 13:17:00,
2013-08-21 08:22:00,72.4,67.6,29.92,SSW,198,4.6,4.6,85,0.00,,SKC,0.00,WeatherDisplay:10.37,2013-08-21 13:22:00,
2013-08-21 08:27:00,72.8,67.7,29.92,SSW,203,5.8,5.8,84,0.00,,SKC,0.00,WeatherDisplay:10.37,2013-08-21 13:27:00,
2013-08-21 08:32:00,73.1,68.0,29.92,South,179,4.6,4.6,84,0.00,,SKC,0.00,WeatherDisplay:10.37,2013-08-21 13:32:00,
2013-08-21 08:37:00,73.5,68.0,29.92,South,181,4.2,4.2,83,0.00,,SKC,0.00,WeatherDisplay:10.37,2013-08-21 13:37:00,
2013-08-21 08:42:00,73.7,68.2,29.92,SSE,163,3.5,3.5,83,0.00,,SKC,0.00,WeatherDisplay:10.37,2013-08-21 13:42:00,
2013-08-21 08:47:00,73.8,68.0,29.92,South,184,6.4,6.4,82,0.00,,SKC,0.00,WeatherDisplay:10.37,2013-08-21 13:47:00,
2013-08-21 08:52:00,74.0,68.2,29.92,SW,226,6.9,6.9,82,0.00,,SKC,0.00,WeatherDisplay:10.37,2013-08-21 13:52:00,
2013-08-21 08:57:00,74.2,68.7,29.92,South,179,7.4,7.4,83,0.00,,SKC,0.00,WeatherDisplay:10.37,2013-08-21 13:57:00,
2013-08-21 09:02:00,74.4,68.5,29.92,SSW,209,8.5,8.5,82,0.00,,SKC,0.00,WeatherDisplay:10.37,2013-08-21 14:02:00,
2013-08-21 09:07:00,74.7,68.5,29.92,SSE,163,5.8,5.8,81,0.00,,SKC,0.00,WeatherDisplay:10.37,2013-08-21 14:07:00,
2013-08-21 09:12:00,75.1,69.2,29.92,South,186,5.3,5.3,82,0.00,,SKC,0.00,WeatherDisplay:10.37,2013-08-21 14:12:00,
2013-08-21 09:17:00,75.7,69.5,29.92,South,179,5.3,5.3,81,0.00,,SKC,0.00,WeatherDisplay:10.37,2013-08-21 14:17:00,
2013-08-21 09:22:00,76.2,68.5,29.92,South,189,8.5,8.5,77,0.00,,SKC,0.00,WeatherDisplay:10.37,2013-08-21 14:22:00,
2013-08-21 09:27:00,76.6,68.8,29.92,South,183,8.5,8.5,77,0.00,,SKC,0.00,WeatherDisplay:10.37,2013-08-21 14:27:00,
2013-08-21 09:32:00,77.0,68.9,29.92,SSE,161,7.4,7.4,76,0.00,,SKC,0.00,WeatherDisplay:10.37,2013-08-21 14:32:00,
2013-08-21 09:37:00,77.4,68.5,29.92,SSW,199,9.5,9.5,74,0.00,,SKC,0.00,WeatherDisplay:10.37,2013-08-21 14:37:00,
2013-08-21 09:42:00,77.5,68.9,29.92,South,181,10.6,10.6,75,0.00,,SKC,0.00,WeatherDisplay:10.37,2013-08-21 14:42:00,
2013-08-21 09:47:00,77.9,68.9,29.92,SSW,209,7.4,7.4,74,0.00,,SKC,0.00,WeatherDisplay:10.37,2013-08-21 14:47:00,
2013-08-21 09:52:00,78.4,69.0,29.92,SSW,195,4.6,4.6,73,0.00,,SKC,0.00,WeatherDisplay:10.37,2013-08-21 14:52:00,
2013-08-21 09:57:00,78.7,69.3,29.92,SSW,200,9.2,9.2,73,0.00,,SKC,0.00,WeatherDisplay:10.37,2013-08-21 14:57:00,
2013-08-21 10:02:00,79.2,69.4,29.92,South,181,7.4,7.4,72,0.00,,SKC,0.00,WeatherDisplay:10.37,2013-08-21 15:02:00,
2013-08-21 10:07:00,79.4,69.2,29.92,SW,216,8.5,8.5,71,0.00,,SKC,0.00,WeatherDisplay:10.37,2013-08-21 15:07:00,
2013-08-21 10:12:00,79.7,69.5,29.92,SE,131,5.8,5.8,71,0.00,,SKC,0.00,WeatherDisplay:10.37,2013-08-21 15:12:00,
2013-08-21 10:17:00,80.2,69.5,29.92,SSW,203,6.4,6.4,70,0.00,,SKC,0.00,WeatherDisplay:10.37,2013-08-21 15:17:00,
2013-08-21 10:22:00,80.5,69.8,29.92,SSE,167,7.4,7.4,70,0.00,,SKC,0.00,WeatherDisplay:10.37,2013-08-21 15:22:00,
2013-08-21 10:27:00,80.7,69.2,29.92,South,169,5.8,5.8,68,0.00,,SKC,0.00,WeatherDisplay:10.37,2013-08-21 15:27:00,
2013-08-21 10:32:00,80.9,68.9,29.92,South,188,10.4,10.4,67,0.00,,SKC,0.00,WeatherDisplay:10.37,2013-08-21 15:32:00,
2013-08-21 10:37:00,81.3,69.7,29.92,ESE,105,6.9,6.9,68,0.00,,SKC,0.00,WeatherDisplay:10.37,2013-08-21 15:37:00,
2013-08-21 10:42:00,81.4,68.5,29.92,SE,139,9.2,9.2,65,0.00,,SKC,0.00,WeatherDisplay:10.37,2013-08-21 15:42:00,
2013-08-21 10:47:00,81.6,68.7,29.92,South,188,10.6,10.6,65,0.00,,SKC,0.00,WeatherDisplay:10.37,2013-08-21 15:47:00,
2013-08-21 10:52:00,81.9,69.0,29.92,SSW,193,7.4,7.4,65,0.00,,SKC,0.00,WeatherDisplay:10.37,2013-08-21 15:52:00,
2013-08-21 10:57:00,82.1,69.2,29.92,SSW,195,6.4,6.4,65,0.00,,SKC,0.00,WeatherDisplay:10.37,2013-08-21 15:57:00,
2013-08-21 11:02:00,82.3,68.9,29.92,SE,141,8.5,8.5,64,0.00,,SKC,0.00,WeatherDisplay:10.37,2013-08-21 16:02:00,
2013-08-21 11:07:00,82.6,68.3,29.91,SSW,211,9.5,9.5,62,0.00,,SKC,0.00,WeatherDisplay:10.37,2013-08-21 16:07:00,
2013-08-21 11:12:00,82.8,68.4,29.92,South,184,8.5,8.5,62,0.00,,SKC,0.00,WeatherDisplay:10.37,2013-08-21 16:12:00,
2013-08-21 11:17:00,83.2,68.3,29.91,WSW,241,8.5,8.5,61,0.00,,SKC,0.00,WeatherDisplay:10.37,2013-08-21 16:17:00,
2013-08-21 11:22:00,83.4,68.1,29.91,SE,145,15.0,15.0,60,0.00,,SKC,0.00,WeatherDisplay:10.37,2013-08-21 16:22:00,
2013-08-21 11:27:00,83.3,68.0,29.91,SW,226,9.2,9.2,60,0.00,,SKC,0.00,WeatherDisplay:10.37,2013-08-21 16:27:00,
2013-08-21 11:32:00,83.7,67.8,29.91,South,172,11.7,11.7,59,0.00,,SKC,0.00,WeatherDisplay:10.37,2013-08-21 16:32:00,
2013-08-21 11:37:00,83.9,68.5,29.91,South,176,7.4,7.4,60,0.00,,SKC,0.00,WeatherDisplay:10.37,2013-08-21 16:37:00,
2013-08-21 11:42:00,84.3,67.9,29.91,SSE,155,8.5,8.5,58,0.00,,SKC,0.00,WeatherDisplay:10.37,2013-08-21 16:42:00,
2013-08-21 11:47:00,84.5,69.1,29.91,SSW,205,10.4,10.4,60,0.00,,SKC,0.00,WeatherDisplay:10.37,2013-08-21 16:47:00,
2013-08-21 11:52:00,84.7,69.3,29.91,WSW,239,9.2,9.2,60,0.00,,SKC,0.00,WeatherDisplay:10.37,2013-08-21 16:52:00,
2013-08-21 11:57:00,84.7,68.3,29.91,SSE,164,15.0,15.0,58,0.00,,SKC,0.00,WeatherDisplay:10.37,2013-08-21 16:57:00,
2013-08-21 12:02:00,85.1,68.7,29.91,SSW,195,6.9,6.9,58,0.00,,SKC,0.00,WeatherDisplay:10.37,2013-08-21 17:02:00,
2013-08-21 12:07:00,85.5,68.5,29.91,SSE,162,7.4,7.4,57,0.00,,SKC,0.00,WeatherDisplay:10.37,2013-08-21 17:07:00,
2013-08-21 12:12:00,85.5,69.0,29.90,SE,143,10.4,10.4,58,0.00,,SKC,0.00,WeatherDisplay:10.37,2013-08-21 17:12:00,
2013-08-21 12:17:00,85.7,69.7,29.91,SSW,207,7.4,7.4,59,0.00,,SKC,0.00,WeatherDisplay:10.37,2013-08-21 17:17:00,
2013-08-21 12:22:00,86.1,68.0,29.90,SSE,163,9.5,9.5,55,0.00,,SKC,0.00,WeatherDisplay:10.37,2013-08-21 17:22:00,
2013-08-21 12:27:00,86.5,70.0,29.90,South,190,6.9,6.9,58,0.00,,SKC,0.00,WeatherDisplay:10.37,2013-08-21 17:27:00,
2013-08-21 12:32:00,86.6,68.5,29.90,SSW,207,11.5,11.5,55,0.00,,SKC,0.00,WeatherDisplay:10.37,2013-08-21 17:32:00,
2013-08-21 12:37:00,86.8,68.7,29.90,SW,216,11.5,11.5,55,0.00,,SKC,0.00,WeatherDisplay:10.37,2013-08-21 17:37:00,
2013-08-21 12:42:00,86.9,68.3,29.90,SW,221,9.2,9.2,54,0.00,,SKC,0.00,WeatherDisplay:10.37,2013-08-21 17:42:00,
2013-08-21 12:47:00,87.3,68.1,29.90,SSW,203,12.7,12.7,53,0.00,,SKC,0.00,WeatherDisplay:10.37,2013-08-21 17:47:00,
2013-08-21 12:52:00,87.3,68.6,29.90,SSE,164,9.5,9.5,54,0.00,,SKC,0.00,WeatherDisplay:10.37,2013-08-21 17:52:00,
2013-08-21 12:57:00,87.7,69.5,29.90,South,185,6.9,6.9,55,0.00,,SKC,0.00,WeatherDisplay:10.37,2013-08-21 17:57:00,
2013-08-21 13:02:00,88.0,69.3,29.89,South,181,11.7,11.7,54,0.00,,SKC,0.00,WeatherDisplay:10.37,2013-08-21 18:02:00,
2013-08-21 13:07:00,88.3,69.5,29.89,SW,219,9.2,9.2,54,0.00,,SKC,0.00,WeatherDisplay:10.37,2013-08-21 18:07:00,
2013-08-21 13:12:00,88.7,68.8,29.89,SSE,150,13.8,13.8,52,0.00,,SKC,0.00,WeatherDisplay:10.37,2013-08-21 18:12:00,
2013-08-21 13:17:00,88.5,69.2,29.89,South,178,11.5,11.5,53,0.00,,SKC,0.00,WeatherDisplay:10.37,2013-08-21 18:17:00,
2013-08-21 13:23:00,88.6,68.7,29.89,South,176,15.0,15.0,52,0.00,,SKC,0.00,WeatherDisplay:10.37,2013-08-21 18:23:00,
2013-08-21 13:28:00,88.7,68.8,29.89,SSW,199,12.7,12.7,52,0.00,,SKC,0.00,WeatherDisplay:10.37,2013-08-21 18:28:00,
2013-08-21 13:33:00,88.8,68.9,29.89,SSW,204,11.5,11.5,52,0.00,,SKC,0.00,WeatherDisplay:10.37,2013-08-21 18:33:00,
2013-08-21 13:38:00,89.2,69.8,29.89,South,181,13.8,13.8,53,0.00,,SKC,0.00,WeatherDisplay:10.37,2013-08-21 18:38:00,
2013-08-21 13:43:00,89.5,69.5,29.89,SW,225,13.8,13.8,52,0.00,,SKC,0.00,WeatherDisplay:10.37,2013-08-21 18:43:00,
2013-08-21 13:48:00,89.6,69.1,29.89,South,187,15.0,15.0,51,0.00,,SKC,0.00,WeatherDisplay:10.37,2013-08-21 18:48:00,
2013-08-21 13:53:00,89.7,69.7,29.89,SE,146,10.6,10.6,52,0.00,,SKC,0.00,WeatherDisplay:10.37,2013-08-21 18:53:00,
2013-08-21 13:58:00,90.2,70.2,29.89,SSW,193,10.4,10.4,52,0.00,,SKC,0.00,WeatherDisplay:10.37,2013-08-21 18:58:00,
2013-08-21 14:03:00,90.2,70.2,29.89,SW,229,8.5,8.5,52,0.00,,SKC,0.00,WeatherDisplay:10.37,2013-08-21 19:03:00,
2013-08-21 14:08:00,90.4,69.8,29.88,SSE,163,10.6,10.6,51,0.00,,SKC,0.00,WeatherDisplay:10.37,2013-08-21 19:08:00,
2013-08-21 14:13:00,90.3,69.7,29.88,SSW,203,12.7,12.7,51,0.00,,SKC,0.00,WeatherDisplay:10.37,2013-08-21 19:13:00,
2013-08-21 14:18:00,90.4,70.4,29.88,WSW,246,9.5,9.5,52,0.00,,SKC,0.00,WeatherDisplay:10.37,2013-08-21 19:18:00,
2013-08-21 14:23:00,90.8,69.6,29.88,South,181,10.6,10.6,50,0.00,,SKC,0.00,WeatherDisplay:10.37,2013-08-21 19:23:00,
2013-08-21 14:28:00,90.8,68.4,29.88,South,174,13.8,13.8,48,0.00,,SKC,0.00,WeatherDisplay:10.37,2013-08-21 19:28:00,
2013-08-21 14:33:00,90.9,68.5,29.88,SW,224,16.1,16.1,48,0.00,,SKC,0.00,WeatherDisplay:10.37,2013-08-21 19:33:00,
2013-08-21 14:38:00,91.1,69.9,29.88,SE,142,10.6,10.6,50,0.00,,SKC,0.00,WeatherDisplay:10.37,2013-08-21 19:38:00,
2013-08-21 14:43:00,91.3,70.6,29.88,SSW,194,8.1,8.1,51,0.00,,SKC,0.00,WeatherDisplay:10.37,2013-08-21 19:43:00,
2013-08-21 14:48:00,91.6,69.7,29.88,SSW,198,11.7,11.7,49,0.00,,SKC,0.00,WeatherDisplay:10.37,2013-08-21 19:48:00,
2013-08-21 14:53:00,91.5,69.0,29.88,SSW,208,13.8,13.8,48,0.00,,SKC,0.00,WeatherDisplay:10.37,2013-08-21 19:53:00,
2013-08-21 14:58:00,91.5,69.6,29.88,South,183,8.5,8.5,49,0.00,,SKC,0.00,WeatherDisplay:10.37,2013-08-21 19:58:00,
2013-08-21 15:03:00,91.5,69.6,29.87,South,183,10.6,10.6,49,0.00,,SKC,0.00,WeatherDisplay:10.37,2013-08-21 20:03:00,
2013-08-21 15:08:00,91.5,69.6,29.87,SW,231,13.8,13.8,49,0.00,,SKC,0.00,WeatherDisplay:10.37,2013-08-21 20:08:00,
2013-08-21 15:13:00,91.5,69.6,29.87,SE,140,12.7,12.7,49,0.00,,SKC,0.00,WeatherDisplay:10.37,2013-08-21 20:13:00,
2013-08-21 15:18:00,91.6,70.3,29.87,SSW,210,9.5,9.5,50,0.00,,SKC,0.00,WeatherDisplay:10.37,2013-08-21 20:18:00,
2013-08-21 15:23:00,91.9,72.3,29.87,SW,219,8.5,8.5,53,0.00,,SKC,0.00,WeatherDisplay:10.37,2013-08-21 20:23:00,
2013-08-21 15:28:00,92.1,70.8,29.87,South,191,11.5,11.5,50,0.00,,SKC,0.00,WeatherDisplay:10.37,2013-08-21 20:28:00,
2013-08-21 15:33:00,91.7,68.6,29.87,SSW,205,13.8,13.8,47,0.00,,SKC,0.00,WeatherDisplay:10.37,2013-08-21 20:33:00,
2013-08-21 15:38:00,91.8,69.9,29.87,SSW,212,12.7,12.7,49,0.00,,SKC,0.00,WeatherDisplay:10.37,2013-08-21 20:38:00,
2013-08-21 15:43:00,92.0,70.1,29.87,SSW,205,9.5,9.5,49,0.00,,SKC,0.00,WeatherDisplay:10.37,2013-08-21 20:43:00,
2013-08-21 15:48:00,92.1,70.2,29.87,SSE,167,10.6,10.6,49,0.00,,SKC,0.00,WeatherDisplay:10.37,2013-08-21 20:48:00,
2013-08-21 15:53:00,92.1,70.2,29.87,South,172,9.5,9.5,49,0.00,,SKC,0.00,WeatherDisplay:10.37,2013-08-21 20:53:00,
2013-08-21 15:58:00,92.1,70.2,29.87,South,189,9.5,9.5,49,0.00,,SKC,0.00,WeatherDisplay:10.37,2013-08-21 20:58:00,
2013-08-21 16:03:00,92.4,70.5,29.86,SSW,196,9.2,9.2,49,0.00,,SKC,0.00,WeatherDisplay:10.37,2013-08-21 21:03:00,
2013-08-21 16:08:00,92.4,69.9,29.86,SSE,149,11.7,11.7,48,0.00,,SKC,0.00,WeatherDisplay:10.37,2013-08-21 21:08:00,
2013-08-21 16:13:00,92.5,70.0,29.86,South,188,12.7,12.7,48,0.00,,SKC,0.00,WeatherDisplay:10.37,2013-08-21 21:13:00,
2013-08-21 16:18:00,92.4,69.9,29.86,South,191,8.5,8.5,48,0.00,,SKC,0.00,WeatherDisplay:10.37,2013-08-21 21:18:00,
2013-08-21 16:23:00,92.5,70.6,29.86,SW,214,9.2,9.2,49,0.00,,SKC,0.00,WeatherDisplay:10.37,2013-08-21 21:23:00,
2013-08-21 16:28:00,92.4,69.9,29.86,SSE,158,11.7,11.7,48,0.00,,SKC,0.00,WeatherDisplay:10.37,2013-08-21 21:28:00,
2013-08-21 16:33:00,92.4,71.6,29.86,SSW,193,10.6,10.6,51,0.00,,SKC,0.00,WeatherDisplay:10.37,2013-08-21 21:33:00,
2013-08-21 16:38:00,92.5,71.2,29.86,SSW,213,9.2,9.2,50,0.00,,SKC,0.00,WeatherDisplay:10.37,2013-08-21 21:38:00,
2013-08-21 16:43:00,92.6,70.6,29.86,SSW,207,11.7,11.7,49,0.00,,SKC,0.00,WeatherDisplay:10.37,2013-08-21 21:43:00,
2013-08-21 16:48:00,92.4,71.1,29.86,SSE,168,9.2,9.2,50,0.00,,SKC,0.00,WeatherDisplay:10.37,2013-08-21 21:48:00,
2013-08-21 16:54:00,92.3,71.0,29.86,SW,220,11.7,11.7,50,0.00,,SKC,0.00,WeatherDisplay:10.37,2013-08-21 21:54:00,
2013-08-21 16:58:00,92.2,70.9,29.86,South,170,9.2,9.2,50,0.00,,SKC,0.00,WeatherDisplay:10.37,2013-08-21 21:58:00,
2013-08-21 17:04:00,92.1,70.8,29.86,South,176,11.5,11.5,50,0.00,,SKC,0.00,WeatherDisplay:10.37,2013-08-21 22:04:00,
2013-08-21 17:09:00,92.0,70.7,29.86,South,188,8.1,8.1,50,0.00,,SKC,0.00,WeatherDisplay:10.37,2013-08-21 22:09:00,
2013-08-21 17:14:00,92.1,70.8,29.86,SSW,205,10.6,10.6,50,0.00,,SKC,0.00,WeatherDisplay:10.37,2013-08-21 22:14:00,
2013-08-21 17:19:00,92.1,70.8,29.86,South,186,10.6,10.6,50,0.00,,SKC,0.00,WeatherDisplay:10.37,2013-08-21 22:19:00,
2013-08-21 17:24:00,92.1,70.8,29.86,SSW,198,7.4,7.4,50,0.00,,SKC,0.00,WeatherDisplay:10.37,2013-08-21 22:24:00,
2013-08-21 17:29:00,92.3,71.6,29.86,SSW,195,5.8,5.8,51,0.00,,SKC,0.00,WeatherDisplay:10.37,2013-08-21 22:29:00,
2013-08-21 17:34:00,92.2,72.0,29.86,SSW,212,8.5,8.5,52,0.00,,SKC,0.00,WeatherDisplay:10.37,2013-08-21 22:34:00,
2013-08-21 17:39:00,91.9,71.2,29.86,South,187,9.2,9.2,51,0.00,,SKC,0.00,WeatherDisplay:10.37,2013-08-21 22:39:00,
2013-08-21 17:44:00,92.0,71.3,29.86,South,182,6.9,6.9,51,0.00,,SKC,0.00,WeatherDisplay:10.37,2013-08-21 22:44:00,
2013-08-21 17:49:00,91.9,71.2,29.85,South,186,10.6,10.6,51,0.00,,SKC,0.00,WeatherDisplay:10.37,2013-08-21 22:49:00,
2013-08-21 17:54:00,91.7,72.7,29.85,South,187,8.1,8.1,54,0.00,,SKC,0.00,WeatherDisplay:10.37,2013-08-21 22:54:00,
2013-08-21 17:59:00,91.4,73.0,29.85,SSW,194,7.4,7.4,55,0.00,,SKC,0.00,WeatherDisplay:10.37,2013-08-21 22:59:00,
2013-08-21 18:04:00,90.8,73.5,29.85,SSE,166,6.9,6.9,57,0.00,,SKC,0.00,WeatherDisplay:10.37,2013-08-21 23:04:00,
2013-08-21 18:09:00,90.4,73.6,29.85,SSE,151,6.9,6.9,58,0.00,,SKC,0.00,WeatherDisplay:10.37,2013-08-21 23:09:00,
2013-08-21 18:14:00,90.1,72.8,29.85,South,180,9.5,9.5,57,0.00,,SKC,0.00,WeatherDisplay:10.37,2013-08-21 23:14:00,
2013-08-21 18:19:00,89.9,72.6,29.85,South,172,8.5,8.5,57,0.00,,SKC,0.00,WeatherDisplay:10.37,2013-08-21 23:19:00,
2013-08-21 18:24:00,89.6,72.9,29.85,SSE,148,5.8,5.8,58,0.00,,SKC,0.00,WeatherDisplay:10.37,2013-08-21 23:24:00,
2013-08-21 18:29:00,89.4,73.2,29.85,SE,139,5.8,5.8,59,0.00,,SKC,0.00,WeatherDisplay:10.37,2013-08-21 23:29:00,
2013-08-21 18:34:00,89.2,72.5,29.85,SSE,152,6.9,6.9,58,0.00,,SKC,0.00,WeatherDisplay:10.37,2013-08-21 23:34:00,
2013-08-21 18:39:00,89.0,73.3,29.85,SSE,156,4.6,4.6,60,0.00,,SKC,0.00,WeatherDisplay:10.37,2013-08-21 23:39:00,
2013-08-21 18:44:00,88.7,73.5,29.85,SSE,148,4.2,4.2,61,0.00,,SKC,0.00,WeatherDisplay:10.37,2013-08-21 23:44:00,
2013-08-21 18:49:00,88.3,74.1,29.85,SSE,148,6.9,6.9,63,0.00,,SKC,0.00,WeatherDisplay:10.37,2013-08-21 23:49:00,
2013-08-21 18:54:00,87.9,73.7,29.85,SSW,203,7.4,7.4,63,0.00,,SKC,0.00,WeatherDisplay:10.37,2013-08-21 23:54:00,
2013-08-21 18:59:00,87.4,73.7,29.84,SSE,148,6.9,6.9,64,0.00,,SKC,0.00,WeatherDisplay:10.37,2013-08-21 23:59:00,
2013-08-21 19:04:00,87.1,73.9,29.84,SE,129,5.8,5.8,65,0.00,,SKC,0.00,WeatherDisplay:10.37,2013-08-22 00:04:00,
2013-08-21 19:09:00,86.7,74.0,29.84,SE,128,6.9,6.9,66,0.00,,SKC,0.00,WeatherDisplay:10.37,2013-08-22 00:09:00,
2013-08-21 19:14:00,86.4,73.7,29.85,SE,135,5.8,5.8,66,0.00,,SKC,0.00,WeatherDisplay:10.37,2013-08-22 00:14:00,
2013-08-21 19:19:00,86.1,73.9,29.85,South,176,6.9,6.9,67,0.00,,SKC,0.00,WeatherDisplay:10.37,2013-08-22 00:19:00,
2013-08-21 19:24:00,85.9,73.7,29.85,East,95,4.6,4.6,67,0.00,,SKC,0.00,WeatherDisplay:10.37,2013-08-22 00:24:00,
2013-08-21 19:29:00,85.5,73.3,29.85,SE,143,5.8,5.8,67,0.00,,SKC,0.00,WeatherDisplay:10.37,2013-08-22 00:29:00,
2013-08-21 19:34:00,85.1,72.9,29.85,SSE,166,6.9,6.9,67,0.00,,SKC,0.00,WeatherDisplay:10.37,2013-08-22 00:34:00,
2013-08-21 19:39:00,84.5,72.8,29.85,SE,141,5.8,5.8,68,0.00,,SKC,0.00,WeatherDisplay:10.37,2013-08-22 00:39:00,
2013-08-21 19:44:00,83.9,72.6,29.85,SSE,159,5.8,5.8,69,0.00,,SKC,0.00,WeatherDisplay:10.37,2013-08-22 00:44:00,
2013-08-21 19:49:00,83.6,72.3,29.85,SSE,153,3.5,3.5,69,0.00,,SKC,0.00,WeatherDisplay:10.37,2013-08-22 00:49:00,
2013-08-21 19:54:00,83.3,72.5,29.85,SE,136,5.8,5.8,70,0.00,,SKC,0.00,WeatherDisplay:10.37,2013-08-22 00:54:00,
2013-08-21 19:59:00,82.9,72.1,29.85,SE,136,3.5,3.5,70,0.00,,SKC,0.00,WeatherDisplay:10.37,2013-08-22 00:59:00,
2013-08-21 20:04:00,82.7,72.3,29.85,SE,143,4.6,4.6,71,0.00,,SKC,0.00,WeatherDisplay:10.37,2013-08-22 01:04:00,
2013-08-21 20:09:00,82.3,72.0,29.85,SE,131,3.2,3.2,71,0.00,,SKC,0.00,WeatherDisplay:10.37,2013-08-22 01:09:00,
2013-08-21 20:14:00,81.9,72.0,29.85,SE,136,2.3,2.3,72,0.00,,SKC,0.00,WeatherDisplay:10.37,2013-08-22 01:14:00,
2013-08-21 20:19:00,81.6,72.1,29.85,SE,126,2.3,2.3,73,0.00,,SKC,0.00,WeatherDisplay:10.37,2013-08-22 01:19:00,
2013-08-21 20:24:00,81.3,72.2,29.85,SE,134,4.6,4.6,74,0.00,,SKC,0.00,WeatherDisplay:10.37,2013-08-22 01:24:00,
2013-08-21 20:29:00,81.0,71.9,29.85,SSE,160,3.2,3.2,74,0.00,,SKC,0.00,WeatherDisplay:10.37,2013-08-22 01:29:00,
2013-08-21 20:34:00,80.9,71.8,29.85,SSE,155,3.2,3.2,74,0.00,,SKC,0.00,WeatherDisplay:10.37,2013-08-22 01:34:00,
2013-08-21 20:39:00,80.6,71.9,29.86,SSW,197,3.5,3.5,75,0.00,,SKC,0.00,WeatherDisplay:10.37,2013-08-22 01:39:00,
2013-08-21 20:44:00,80.3,71.6,29.86,SSE,150,3.5,3.5,75,0.00,,SKC,0.00,WeatherDisplay:10.37,2013-08-22 01:44:00,
2013-08-21 20:49:00,80.2,71.6,29.86,SE,135,4.6,4.6,75,0.00,,SKC,0.00,WeatherDisplay:10.37,2013-08-22 01:49:00,
2013-08-21 20:54:00,80.1,71.5,29.86,SSE,155,3.5,3.5,75,0.00,,SKC,0.00,WeatherDisplay:10.37,2013-08-22 01:54:00,
2013-08-21 20:59:00,80.1,71.5,29.86,SSE,148,4.6,4.6,75,0.00,,SKC,0.00,WeatherDisplay:10.37,2013-08-22 01:59:00,
2013-08-21 21:04:00,80.1,71.1,29.86,South,187,5.8,5.8,74,0.00,,SKC,0.00,WeatherDisplay:10.37,2013-08-22 02:04:00,
2013-08-21 21:09:00,80.0,71.4,29.86,ESE,123,3.5,3.5,75,0.00,,SKC,0.00,WeatherDisplay:10.37,2013-08-22 02:09:00,
2013-08-21 21:14:00,79.8,71.6,29.86,SE,128,2.3,2.3,76,0.00,,SKC,0.00,WeatherDisplay:10.37,2013-08-22 02:14:00,
2013-08-21 21:19:00,79.6,71.4,29.86,SSE,158,6.9,6.9,76,0.00,,SKC,0.00,WeatherDisplay:10.37,2013-08-22 02:19:00,
2013-08-21 21:24:00,79.5,71.7,29.86,SSE,152,4.6,4.6,77,0.00,,SKC,0.00,WeatherDisplay:10.37,2013-08-22 02:24:00,
2013-08-21 21:29:00,79.2,71.7,29.86,SE,141,3.5,3.5,78,0.00,,SKC,0.00,WeatherDisplay:10.37,2013-08-22 02:29:00,
2013-08-21 21:34:00,78.9,71.8,29.87,SE,134,2.3,2.3,79,0.00,,SKC,0.00,WeatherDisplay:10.37,2013-08-22 02:34:00,
2013-08-21 21:39:00,78.5,71.8,29.87,South,173,3.5,3.5,80,0.00,,SKC,0.00,WeatherDisplay:10.37,2013-08-22 02:39:00,
2013-08-21 21:44:00,78.1,71.8,29.88,SW,224,1.1,0.0,81,0.00,,SKC,0.00,WeatherDisplay:10.37,2013-08-22 02:44:00,
2013-08-21 21:49:00,77.7,71.4,29.88,SE,136,2.3,2.3,81,0.00,,SKC,0.00,WeatherDisplay:10.37,2013-08-22 02:49:00,
2013-08-21 21:54:00,77.4,71.5,29.88,SSE,150,2.1,2.1,82,0.00,,SKC,0.00,WeatherDisplay:10.37,2013-08-22 02:54:00,
2013-08-21 21:59:00,77.0,71.4,29.88,SE,128,3.5,3.5,83,0.00,,SKC,0.00,WeatherDisplay:10.37,2013-08-22 02:59:00,
2013-08-21 22:04:00,76.4,71.2,29.88,SE,127,3.5,3.5,84,0.00,,SKC,0.00,WeatherDisplay:10.37,2013-08-22 03:04:00,
2013-08-21 22:09:00,76.1,70.9,29.88,ESE,122,3.5,3.5,84,0.00,,SKC,0.00,WeatherDisplay:10.37,2013-08-22 03:09:00,
2013-08-21 22:14:00,76.0,70.8,29.87,SE,125,4.6,4.6,84,0.00,,SKC,0.00,WeatherDisplay:10.37,2013-08-22 03:14:00,
2013-08-21 22:19:00,75.9,70.7,29.86,SE,140,3.2,3.2,84,0.00,,SKC,0.00,WeatherDisplay:10.37,2013-08-22 03:19:00,
2013-08-21 22:24:00,75.9,70.7,29.86,SSE,158,4.2,4.2,84,0.00,,SKC,0.00,WeatherDisplay:10.37,2013-08-22 03:24:00,
2013-08-21 22:29:00,75.9,70.7,29.86,SSE,147,1.0,5.0,84,0.00,,SKC,0.00,WeatherDisplay:10.37,2013-08-22 03:29:00,
2013-08-21 22:34:00,76.0,70.8,29.85,SSE,160,5.8,5.8,84,0.00,,SKC,0.00,WeatherDisplay:10.37,2013-08-22 03:34:00,
2013-08-21 22:39:00,76.1,70.6,29.85,SE,132,5.3,5.3,83,0.00,,SKC,0.00,WeatherDisplay:10.37,2013-08-22 03:39:00,
2013-08-21 22:44:00,76.2,70.7,29.86,South,169,4.6,4.6,83,0.00,,SKC,0.00,WeatherDisplay:10.37,2013-08-22 03:44:00,
2013-08-21 22:49:00,76.3,70.4,29.86,SSE,149,4.6,4.6,82,0.00,,SKC,0.00,WeatherDisplay:10.37,2013-08-22 03:49:00,
2013-08-21 22:55:00,76.4,70.5,29.86,SE,146,4.6,4.6,82,0.00,,SKC,0.00,WeatherDisplay:10.37,2013-08-22 03:55:00,
2013-08-21 22:59:00,76.4,70.5,29.86,SE,140,3.0,7.0,82,0.00,,SKC,0.00,WeatherDisplay:10.37,2013-08-22 03:59:00,
2013-08-21 23:01:00,76.5,70.6,29.86,SSE,164,6.4,6.4,82,0.00,,SKC,0.00,WeatherDisplay:10.37,2013-08-22 04:01:00,
2013-08-21 23:06:00,76.6,70.3,29.86,SSE,147,5.3,5.3,81,0.00,,SKC,0.00,WeatherDisplay:10.37,2013-08-22 04:06:00,
2013-08-21 23:11:00,76.5,70.2,29.86,SE,133,5.3,5.3,81,0.00,,SKC,0.00,WeatherDisplay:10.37,2013-08-22 04:11:00,
2013-08-21 23:16:00,76.5,70.2,29.87,SE,141,5.8,5.8,81,0.00,,SKC,0.00,WeatherDisplay:10.37,2013-08-22 04:16:00,
2013-08-21 23:21:00,76.5,70.2,29.88,South,176,4.6,4.6,81,0.00,,SKC,0.00,WeatherDisplay:10.37,2013-08-22 04:21:00,
2013-08-21 23:26:00,76.3,70.0,29.87,SE,132,4.6,4.6,81,0.00,,SKC,0.00,WeatherDisplay:10.37,2013-08-22 04:26:00,
2013-08-21 23:31:00,76.2,69.9,29.87,SE,138,4.6,4.6,81,0.00,,SKC,0.00,WeatherDisplay:10.37,2013-08-22 04:31:00,
2013-08-21 23:36:00,76.2,69.9,29.88,SE,136,2.3,2.3,81,0.00,,SKC,0.00,WeatherDisplay:10.37,2013-08-22 04:36:00,
2013-08-21 23:41:00,76.1,69.8,29.89,SSE,147,1.2,1.2,81,0.00,,SKC,0.00,WeatherDisplay:10.37,2013-08-22 04:41:00,
2013-08-21 23:46:00,75.9,69.6,29.89,SE,144,1.2,1.2,81,0.00,,SKC,0.00,WeatherDisplay:10.37,2013-08-22 04:46:00,
2013-08-21 23:51:00,75.6,69.7,29.88,SSE,153,3.2,3.2,82,0.00,,SKC,0.00,WeatherDisplay:10.37,2013-08-22 04:51:00,
2013-08-21 23:56:00,75.5,69.6,29.88,SSE,155,3.5,3.5,82,0.00,,SKC,0.00,WeatherDisplay:10.37,2013-08-22 04:56:00,